This is the latest recevied weather packets stored in our database for station/object KF3BH. If no packets are shown the sender has not sent any weather packets the latest 10 day(s).
| Time | Temp. | Humidity | Pressure | Rain* | Wind** | Luminosity | Snow |
|---|---|---|---|---|---|---|---|
| 1778087425 | 14.44° C | 96% | 1006.6 hPa | 0 mm | - | 19 W/m² | - |
| 1778082625 | 14.44° C | 95% | 1006.5 hPa | 1.52 mm | - | 32 W/m² | - |
| 1778080825 | 14.44° C | 95% | 1006.4 hPa | 2.29 mm | - | 39 W/m² | - |
| 1778079025 | 14.44° C | 94% | 1006.8 hPa | 2.79 mm | - | 21 W/m² | - |
| 1778076625 | 14.44° C | 93% | 1006.6 hPa | 2.03 mm | - | 40 W/m² | - |
| 1778072425 | 14.44° C | 90% | 1007 hPa | 2.03 mm | - | 19 W/m² | - |
| 1778066425 | 17.22° C | 67% | 1006.9 hPa | 0 mm | - | 18 W/m² | - |
| 1778065825 | 17.22° C | 64% | 1006.7 hPa | 0 mm | - | 14 W/m² | - |
| 1778052625 | 18.89° C | 49% | 1006.4 hPa | 0 mm | - | 0 W/m² | - |
| 1778041825 | 19.44° C | 49% | 1007.5 hPa | 0 mm | - | 0 W/m² | - |
| 1778040625 | 20° C | 48% | 1007.5 hPa | 0 mm | - | 0 W/m² | - |
| 1778027425 | 21.11° C | 50% | 1007.3 hPa | 0 mm | - | 0 W/m² | - |
| 1778019626 | 23.89° C | 41% | 1006.3 hPa | 0 mm | - | 0 W/m² | - |
| 1778017825 | 24.44° C | 40% | 1005.8 hPa | 0 mm | - | 16 W/m² | - |
| 1778016025 | 25° C | 37% | 1005.8 hPa | 0 mm | - | 56 W/m² | - |
| 1778014225 | 25° C | 36% | 1005.7 hPa | 0 mm | - | 28 W/m² | - |
| 1778013025 | 25° C | 36% | 1005.7 hPa | 0 mm | - | 53 W/m² | - |
| 1778003425 | 25.56° C | 41% | 1007.3 hPa | 0 mm | - | 294 W/m² | - |
| 1777999225 | 25° C | 45% | 1008.1 hPa | 0 mm | - | 512 W/m² | - |
| 1777994425 | 24.44° C | 45% | 1008.8 hPa | 0 mm | - | 645 W/m² | - |
| 1777988425 | 21.67° C | 53% | 1008.8 hPa | 0 mm | - | 475 W/m² | - |
| 1777987825 | 21.11° C | 53% | 1009 hPa | 0 mm | - | 445 W/m² | - |
| 1777984825 | 18.89° C | 60% | 1009.3 hPa | 0 mm | - | 338 W/m² | - |
| 1777979425 | 15.56° C | 65% | 1008.9 hPa | 0 mm | - | 47 W/m² | - |
| 1777978225 | 15.56° C | 67% | 1008.9 hPa | 0 mm | - | 19 W/m² | - |
* Rain latest hour (hover to see other rain measurements)
** Current wind speed in m/s (hover to see current wind gust speed)